Flight Track Log - Related Links

Times and Time Zones

All times are in EDT time to prevent confusion due to time zone crossing. See the DAL268 flight status page for this flight to view local times or setup timezone preferences in your user account.

Time Position Orientation Groundspeed Altitude Reporting Facility
EDT Latitude Longitude Course Direction KTS MPH feet Rate Location/Type
Fri 02:41:02 PM 37.6170 -122.3740 38° Northeast 145 167  Level FlightAware ADS-B
Fri 02:41:12 PM 37.6242 -122.3690 29° Northeast 175 201 1,556 Level FlightAware ADS-B
Fri 02:41:29 PM 37.6355 -122.3610 29° Northeast 172 198 700 2,286 Climbing FlightAware ADS-B
Fri 02:41:33 PM 37.6385 -122.3590 28° Northeast 178 205 800 2,182 Climbing FlightAware ADS-B
Fri 02:41:40 PM 37.6436 -122.3550 32° Northeast 186 214 1,100 2,308 Climbing FlightAware ADS-B
Fri 02:41:46 PM 37.6472 -122.3500 48° Northeast 185 213 1,300 1,909 Climbing FlightAware ADS-B
Fri 02:42:02 PM 37.6567 -122.3370 47° Northeast 199 229 1,800 1,688 Climbing FlightAware ADS-B
Fri 02:42:18 PM 37.6667 -122.3220 50° Northeast 223 257 2,200 1,688 Climbing FlightAware ADS-B
Fri 02:42:34 PM 37.6776 -122.3060 49° Northeast 236 272 2,700 1,875 Climbing FlightAware ADS-B
Fri 02:42:50 PM 37.6897 -122.2880 50° Northeast 250 288 3,200 2,167 Climbing FlightAware ADS-B
Fri 02:43:10 PM 37.7061 -122.2650 48° Northeast 267 307 4,000 2,615 Climbing FlightAware ADS-B
Fri 02:43:29 PM 37.7219 -122.2420 49° Northeast 271 312 4,900 2,714 Climbing FlightAware ADS-B
Fri 02:43:52 PM 37.7415 -122.2150 47° Northeast 281 323 5,900 2,842 Climbing FlightAware ADS-B
Fri 02:44:07 PM 37.7549 -122.1960 48° Northeast 281 323 6,700 2,870 Climbing FlightAware ADS-B
Fri 02:44:15 PM 37.7624 -122.1870 43° Northeast 285 328 7,000 2,160 Climbing FlightAware ADS-B
Fri 02:44:32 PM 37.7799 -122.1700 38° Northeast 295 339 7,600 2,364 Climbing FlightAware ADS-B
Fri 02:44:48 PM 37.7981 -122.1520 38° Northeast 301 346 8,300 2,600 Climbing FlightAware ADS-B
Fri 02:45:02 PM 37.8121 -122.1370 40° Northeast 298 343 8,900 2,690 Climbing FlightAware ADS-B
Fri 02:45:17 PM 37.8289 -122.1210 37° Northeast 301 346 9,600 2,133 Climbing FlightAware ADS-B
Fri 02:45:47 PM 37.8636 -122.0890 36° Northeast 321 369 10,500 1,300 Climbing FlightAware ADS-B
Fri 02:46:17 PM 37.9027 -122.0540 35° Northeast 358 412 10,900 968 Climbing FlightAware ADS-B
Fri 02:46:49 PM 37.9473 -122.0130 36° Northeast 384 442 11,500 1,500 Climbing FlightAware ADS-B
Fri 02:47:21 PM 37.9931 -121.9710 36° Northeast 396 456 12,500 2,045 Climbing FlightAware ADS-B
Fri 02:48:17 PM 38.0780 -121.8930 36° Northeast 405 466 14,500 2,133 Climbing FlightAware ADS-B
Fri 02:48:51 PM 38.1290 -121.8440 37° Northeast 411 473 15,700 2,029 Climbing FlightAware ADS-B
Fri 02:49:25 PM 38.1810 -121.7970 35° Northeast 417 480 16,800 1,853 Climbing FlightAware ADS-B
Fri 02:49:59 PM 38.2360 -121.7450 37° Northeast 425 489 17,800 1,676 Climbing FlightAware ADS-B
Fri 02:50:33 PM 38.2920 -121.6940 36° Northeast 432 497 18,700 1,583 Climbing FlightAware ADS-B
Fri 02:51:11 PM 38.3520 -121.6370 37° Northeast 440 506 19,700 1,543 Climbing FlightAware ADS-B
Fri 02:51:43 PM 38.4050 -121.5880 36° Northeast 448 516 20,500 1,500 Climbing FlightAware ADS-B
Fri 02:52:23 PM 38.4650 -121.5140 44° Northeast 453 521 21,500 1,583 Climbing FlightAware ADS-B
Fri 02:52:55 PM 38.5060 -121.4450 53° Northeast 458 527 22,400 1,548 Climbing FlightAware ADS-B
Fri 02:53:25 PM 38.5450 -121.3790 53° Northeast 463 533 23,100 1,371 Climbing FlightAware ADS-B
Fri 02:54:05 PM 38.5960 -121.2910 53° Northeast 467 537 24,000 1,325 Climbing FlightAware ADS-B
Fri 02:54:42 PM 38.6420 -121.2110 54° Northeast 473 544 24,800 1,254 Climbing FlightAware ADS-B
Fri 02:55:12 PM 38.6800 -121.1460 53° Northeast 478 550 25,400 1,292 Climbing FlightAware ADS-B
Fri 02:55:47 PM 38.7290 -121.0610 54° Northeast 484 557 26,200 1,360 Climbing FlightAware ADS-B
Fri 02:56:27 PM 38.7830 -120.9670 54° Northeast 489 563 27,100 1,297 Climbing FlightAware ADS-B
Fri 02:57:01 PM 38.8280 -120.8890 53° Northeast 492 566 27,800 1,200 Climbing FlightAware ADS-B
Fri 02:57:37 PM 38.8760 -120.8050 54° Northeast 495 570 28,500 1,273 Climbing FlightAware ADS-B
Fri 02:58:07 PM 38.9180 -120.7330 53° Northeast 494 568 29,200 1,182 Climbing FlightAware ADS-B
Fri 02:58:43 PM 38.9670 -120.6490 53° Northeast 499 574 29,800 904 Climbing FlightAware ADS-B
Fri 02:59:20 PM 39.0150 -120.5660 53° Northeast 507 583 30,300 973 Climbing FlightAware ADS-B
Fri 02:59:57 PM 39.0690 -120.4710 54° Northeast 509 586 31,000 1,130 Climbing FlightAware ADS-B
Fri 03:00:29 PM 39.1150 -120.3920 53° Northeast 510 587 31,600 1,059 Climbing FlightAware ADS-B
Fri 03:01:05 PM 39.1650 -120.3040 54° Northeast 513 590 32,200 1,068 Climbing FlightAware ADS-B
Fri 03:01:42 PM 39.2170 -120.2130 54° Northeast 513 590 32,900 1,075 Climbing FlightAware ADS-B
Fri 03:02:12 PM 39.2590 -120.1380 54° Northeast 513 590 33,400 1,091 Climbing FlightAware ADS-B
Fri 03:02:48 PM 39.3090 -120.0500 54° Northeast 512 589 34,100 1,167 Climbing FlightAware ADS-B
Fri 03:03:24 PM 39.3590 -119.9620 54° Northeast 511 588 34,800 1,135 Climbing FlightAware ADS-B
Fri 03:04:02 PM 39.4120 -119.8680 54° Northeast 509 586 35,500 1,059 Climbing FlightAware ADS-B
Fri 03:04:32 PM 39.4540 -119.7930 54° Northeast 507 583 36,000 1,000 Climbing FlightAware ADS-B
Fri 03:05:08 PM 39.5040 -119.7050 54° Northeast 507 583 36,600 833 Climbing FlightAware ADS-B
Fri 03:05:44 PM 39.5530 -119.6170 54° Northeast 507 583 37,000 333 Climbing FlightAware ADS-B
Fri 03:06:20 PM 39.6020 -119.5290 54° Northeast 510 587 37,000  Level FlightAware ADS-B
Fri 03:06:56 PM 39.6510 -119.4410 54° Northeast 512 589 37,000  Level FlightAware ADS-B
Fri 03:07:32 PM 39.7030 -119.3470 54° Northeast 513 590 37,000  Level FlightAware ADS-B
Fri 03:08:06 PM 39.7490 -119.2660 54° Northeast 513 590 37,000  Level FlightAware ADS-B
Fri 03:08:40 PM 39.7960 -119.1800 55° Northeast 514 592 37,000  Level FlightAware ADS-B
Fri 03:09:15 PM 39.8440 -119.0920 55° Northeast 514 592 37,000  Level FlightAware ADS-B
Fri 03:09:49 PM 39.8920 -119.0050 54° Northeast 511 588 37,000  Level FlightAware ADS-B
Fri 03:10:27 PM 39.9440 -118.9100 54° Northeast 514 592 37,000  Level FlightAware ADS-B
Fri 03:11:01 PM 39.9900 -118.8260 54° Northeast 514 592 37,000  Level FlightAware ADS-B
Fri 03:11:33 PM 40.0350 -118.7440 54° Northeast 515 593 37,000  Level FlightAware ADS-B
Fri 03:12:09 PM 40.0850 -118.6520 55° Northeast 515 593 37,000  Level FlightAware ADS-B
Fri 03:12:45 PM 40.1280 -118.5570 59° Northeast 516 594 37,000  Level FlightAware ADS-B
Fri 03:13:22 PM 40.1610 -118.4500 68° East 515 593 37,000  Level FlightAware ADS-B
Fri 03:13:53 PM 40.1860 -118.3600 70° East 515 593 37,000  Level FlightAware ADS-B
Fri 03:14:29 PM 40.2140 -118.2570 70° East 517 595 37,000  Level FlightAware ADS-B
Fri 03:15:05 PM 40.2430 -118.1490 71° East 518 596 37,000  Level FlightAware ADS-B
Fri 03:15:41 PM 40.2730 -118.0390 70° East 517 595 37,000  Level FlightAware ADS-B
Fri 03:16:19 PM 40.3020 -117.9320 70° East 517 595 37,000  Level FlightAware ADS-B
Fri 03:16:59 PM 40.3330 -117.8150 71° East 517 595 37,000  Level FlightAware ADS-B
Fri 03:17:48 PM 40.3700 -117.6810 70° East 517 595 37,000  Level FlightAware ADS-B
Fri 03:18:23 PM 40.3940 -117.5930 70° East 517 595 37,000  Level FlightAware ADS-B
Fri 03:19:01 PM 40.4210 -117.4980 70° East 517 595 37,000  Level FlightAware ADS-B
Fri 03:19:38 PM 40.4460 -117.4050 71° East 517 595 37,000  Level FlightAware ADS-B
Fri 03:20:14 PM 40.4710 -117.3140 70° East 517 595 37,000  Level FlightAware ADS-B
Fri 03:20:50 PM 40.4960 -117.2240 70° East 517 595 37,000  Level FlightAware ADS-B
Fri 03:21:27 PM 40.5220 -117.1310 70° East 517 595 37,000  Level FlightAware ADS-B
Fri 03:22:04 PM 40.5480 -117.0380 70° East 517 595 37,000  Level FlightAware ADS-B
Fri 03:22:40 PM 40.5730 -116.9470 70° East 517 595 37,000  Level FlightAware ADS-B
Fri 03:23:14 PM 40.5960 -116.8620 70° East 517 595 37,000  Level FlightAware ADS-B
Fri 03:23:50 PM 40.6210 -116.7710 70° East 517 595 37,000  Level FlightAware ADS-B
Fri 03:24:28 PM 40.6480 -116.6760 69° East 517 595 37,000  Level FlightAware ADS-B
Fri 03:25:06 PM 40.7218 -116.3590 73° East 523 602 37,000  Level FlightAware ADS-B
Fri 03:25:38 PM 40.6960 -116.4990 256° West 517 595 37,000  Level FlightAware ADS-B
Fri 03:25:56 PM 40.7621 -116.2090 73° East 523 602 37,000  Level FlightAware ADS-B
Fri 03:26:27 PM 40.7868 -116.1150 71° East 523 602 37,000  Level FlightAware ADS-B
Fri 03:26:57 PM 40.8109 -116.0240 71° East 524 603 37,000  Level FlightAware ADS-B
Fri 03:27:28 PM 40.8354 -115.9310 71° East 524 603 37,000  Level FlightAware ADS-B
Fri 03:28:05 PM 40.8644 -115.8210 71° East 524 603 37,000  Level FlightAware ADS-B
Fri 03:30:44 PM 40.9888 -115.3420 71° East 523 602 37,000  Level FlightAware ADS-B
Fri 03:31:19 PM 41.0161 -115.2360 71° East 522 601 37,000  Level FlightAware ADS-B
Fri 03:31:49 PM 41.0393 -115.1450 71° East 523 602 37,000  Level FlightAware ADS-B
Fri 03:32:19 PM 41.0626 -115.0530 71° East 523 602 37,000  Level FlightAware ADS-B
Fri 03:33:10 PM 41.1013 -114.9000 71° East 523 602 37,000  Level FlightAware ADS-B
Fri 03:33:52 PM 41.1334 -114.7730 71° East 523 602 37,000  Level FlightAware ADS-B
Fri 03:34:22 PM 41.1566 -114.6800 72° East 521 600 37,000  Level FlightAware ADS-B
Fri 03:34:56 PM 41.1825 -114.5760 72° East 523 602 37,000  Level FlightAware ADS-B
Fri 03:35:30 PM 41.2081 -114.4740 72° East 523 602 37,000  Level FlightAware ADS-B
Fri 03:36:01 PM 41.2311 -114.3800 72° East 524 603 37,000  Level FlightAware ADS-B
Fri 03:37:00 PM 41.2753 -114.2010 72° East 523 602 37,000  Level FlightAware ADS-B
Fri 03:37:32 PM 41.2995 -114.1020 72° East 520 598 37,000  Level FlightAware ADS-B
Fri 03:38:02 PM 41.3219 -114.0100 72° East 522 601 37,000  Level FlightAware ADS-B
Fri 03:38:32 PM 41.3441 -113.9190 72° East 521 600 37,000  Level FlightAware ADS-B
Fri 03:39:00 PM 41.3616 -113.8350 74° East 522 601 37,000  Level FlightAware ADS-B
Fri 03:39:32 PM 41.3773 -113.7320 78° East 524 603 37,000  Level FlightAware ADS-B
Fri 03:40:03 PM 41.3898 -113.6360 80° East 523 602 37,000  Level FlightAware ADS-B
Fri 03:40:35 PM 41.4029 -113.5320 80° East 521 600 37,000  Level FlightAware ADS-B
Fri 03:41:06 PM 41.4152 -113.4350 80° East 523 602 37,000  Level FlightAware ADS-B
Fri 03:41:37 PM 41.4274 -113.3370 81° East 524 603 37,000  Level FlightAware ADS-B
Fri 03:42:08 PM 41.4395 -113.2400 81° East 526 605 37,000  Level FlightAware ADS-B
Fri 03:42:43 PM 41.4536 -113.1260 81° East 525 604 37,000  Level FlightAware ADS-B
Fri 03:43:16 PM 41.4663 -113.0230 81° East 524 603 37,000  Level FlightAware ADS-B
Fri 03:43:52 PM 41.4806 -112.9070 81° East 523 602 37,000  Level FlightAware ADS-B
Fri 03:44:24 PM 41.4930 -112.8080 80° East 521 600 37,000  Level FlightAware ADS-B
Fri 03:44:37 PM 41.4978 -112.7650 82° East 522 601 37,000  Level FlightAware ADS-B
Fri 03:45:09 PM 41.5097 -112.6660 81° East 521 600 37,000  Level FlightAware ADS-B
Fri 03:45:42 PM 41.5222 -112.5610 81° East 522 601 37,000  Level FlightAware ADS-B
Fri 03:46:12 PM 41.5336 -112.4640 81° East 525 604 37,000  Level FlightAware ADS-B
Fri 03:46:43 PM 41.5444 -112.3640 82° East 525 604 37,000  Level FlightAware ADS-B
Fri 03:47:16 PM 41.5552 -112.2580 82° East 525 604 37,000  Level FlightAware ADS-B
Fri 03:47:49 PM 41.5661 -112.1530 82° East 524 603 37,000  Level FlightAware ADS-B
Fri 03:48:20 PM 41.5762 -112.0540 82° East 524 603 37,000  Level FlightAware ADS-B
Fri 03:48:56 PM 41.5905 -111.9410 80° East 526 605 37,000  Level FlightAware ADS-B
Fri 03:49:44 PM 41.6175 -111.7870 77° East 526 605 37,000  Level FlightAware ADS-B
Fri 03:50:17 PM 41.6354 -111.6850 77° East 525 604 37,000  Level FlightAware ADS-B
Fri 03:50:47 PM 41.6524 -111.5890 77° East 524 603 37,000  Level FlightAware ADS-B
Fri 03:51:17 PM 41.6694 -111.4950 76° East 524 603 37,000  Level FlightAware ADS-B
Fri 03:51:50 PM 41.6880 -111.3910 76° East 523 602 37,000  Level FlightAware ADS-B
Fri 03:52:21 PM 41.7049 -111.2960 77° East 523 602 37,000  Level FlightAware ADS-B
Fri 03:52:57 PM 41.7253 -111.1830 76° East 521 600 37,000  Level FlightAware ADS-B
Fri 03:53:28 PM 41.7431 -111.0830 77° East 523 602 37,000  Level FlightAware ADS-B
Fri 03:53:59 PM 41.7596 -110.9880 77° East 521 600 37,000  Level FlightAware ADS-B
Fri 03:54:29 PM 41.7730 -110.9230 75° East 523 602 37,000  Level FlightAware ADS-B
Fri 03:55:05 PM 41.7910 -110.8270 76° East 523 602 37,000  Level FlightAware ADS-B
Fri 03:55:43 PM 41.8100 -110.7250 76° East 523 602 37,000  Level FlightAware ADS-B
Fri 03:56:19 PM 41.8280 -110.6290 76° East 523 602 37,000  Level FlightAware ADS-B
Fri 03:56:56 PM 41.8460 -110.5290 76° East 523 602 37,000  Level FlightAware ADS-B
Fri 03:57:33 PM 41.8640 -110.4300 76° East 523 602 37,000  Level FlightAware ADS-B
Fri 03:58:07 PM 41.8810 -110.3390 76° East 523 602 37,000  Level FlightAware ADS-B
Fri 03:58:41 PM 41.8980 -110.2480 76° East 523 602 37,000  Level FlightAware ADS-B
Fri 03:59:17 PM 41.9160 -110.1520 76° East 523 602 37,000  Level FlightAware ADS-B
Fri 03:59:54 PM 41.9350 -110.0520 76° East 523 602 37,000  Level FlightAware ADS-B
Fri 04:00:28 PM 41.9510 -109.9610 77° East 523 602 37,000  Level FlightAware ADS-B
Fri 04:01:05 PM 41.9700 -109.8620 75° East 523 602 37,000  Level FlightAware ADS-B
Fri 04:01:42 PM 41.9880 -109.7620 76° East 523 602 37,000  Level FlightAware ADS-B
Fri 04:02:18 PM 42.0060 -109.6660 76° East 523 602 37,000  Level FlightAware ADS-B
Fri 04:03:04 PM 42.0290 -109.5420 76° East 523 602 37,000  Level FlightAware ADS-B
Fri 04:03:37 PM 42.0267 -109.1750 76° East 523 602 37,000  Level Salt Lake Center
Fri 04:04:39 PM 42.0439 -108.9864 83° East 526 605 37,000  Level Salt Lake Center
Fri 04:05:41 PM 42.0622 -108.7700 83° East 521 600 37,000  Level Salt Lake Center
Fri 04:06:43 PM 42.0778 -108.5828 84° East 524 603 37,000  Level Salt Lake Center
Fri 04:07:45 PM 42.0956 -108.3656 84° East 523 602 37,000  Level Salt Lake Center
Fri 04:08:47 PM 42.1111 -108.1803 83° East 521 600 37,000  Level Salt Lake Center
Fri 04:09:49 PM 42.1253 -107.9594 85° East 529 609 37,000  Level Salt Lake Center
Fri 04:10:51 PM 42.1400 -107.7750 84° East 522 601 37,000  Level Salt Lake Center
Fri 04:11:48 PM 42.1539 -107.5900 84° East 522 601 37,000  Level Denver Center
Fri 04:17:54 PM 42.2050 -106.3870 84° East 517 595 37,000  Level FlightAware ADS-B
Fri 04:18:32 PM 42.2040 -106.2810 91° East 517 595 37,000  Level FlightAware ADS-B
Fri 04:19:08 PM 42.2020 -106.1820 92° East 517 595 37,000  Level FlightAware ADS-B
Fri 04:19:52 PM 42.1960 -106.0110 93° East 516 594 37,000  Level FlightAware ADS-B
Fri 04:20:32 PM 42.1930 -105.8860 92° East 518 596 37,000  Level FlightAware ADS-B
Fri 04:21:13 PM 42.1920 -105.7740 91° East 518 596 37,000  Level FlightAware ADS-B
Fri 04:21:49 PM 42.1900 -105.6750 92° East 518 596 37,000  Level FlightAware ADS-B
Fri 04:22:25 PM 42.1890 -105.5760 91° East 518 596 37,000  Level FlightAware ADS-B
Fri 04:23:04 PM 42.1860 -105.3910 91° East 517 595 37,000  Level FlightAware ADS-B
Fri 04:23:36 PM 42.1900 -105.2880 87° East 515 593 37,000  Level FlightAware ADS-B
Fri 04:24:29 PM 42.1950 -105.1320 87° East 514 592 37,000  Level FlightAware ADS-B
Fri 04:25:06 PM 42.1990 -105.0310 87° East 514 592 37,000  Level FlightAware ADS-B
Fri 04:25:43 PM 42.2030 -104.9310 87° East 514 592 37,000  Level FlightAware ADS-B
Fri 04:26:19 PM 42.2070 -104.8330 87° East 514 592 37,000  Level FlightAware ADS-B
Fri 04:26:55 PM 42.2110 -104.7340 87° East 514 592 37,000  Level FlightAware ADS-B
Fri 04:27:28 PM 42.2340 -104.5440 81° East 516 594 37,000  Level FlightAware ADS-B
Fri 04:28:10 PM 42.2420 -104.4280 85° East 516 594 37,000  Level FlightAware ADS-B
Fri 04:28:45 PM 42.2480 -104.3330 85° East 516 594 37,000  Level FlightAware ADS-B
Fri 04:29:22 PM 42.2550 -104.2320 85° East 516 594 37,000  Level FlightAware ADS-B
Fri 04:29:59 PM 42.2610 -104.1310 85° East 516 594 37,000  Level FlightAware ADS-B
Fri 04:30:35 PM 42.2680 -104.0320 85° East 516 594 37,000  Level FlightAware ADS-B
Fri 04:31:12 PM 42.2740 -103.9310 85° East 516 594 37,000  Level FlightAware ADS-B
Fri 04:31:49 PM 42.2810 -103.8300 85° East 516 594 37,000  Level FlightAware ADS-B
Fri 04:32:26 PM 42.2870 -103.7290 85° East 516 594 37,000  Level FlightAware ADS-B
Fri 04:33:18 PM 42.3030 -103.4400 86° East 516 594 37,000  Level FlightAware ADS-B
Fri 04:33:55 PM 42.3090 -103.3390 85° East 516 594 37,000  Level FlightAware ADS-B
Fri 04:34:29 PM 42.3150 -103.2460 85° East 516 594 37,000  Level FlightAware ADS-B
Fri 04:35:22 PM 42.3250 -103.0410 86° East 516 594 37,000  Level FlightAware ADS-B
Fri 04:35:58 PM 42.3310 -102.9430 85° East 516 594 37,000  Level FlightAware ADS-B
Fri 04:36:35 PM 42.3380 -102.8420 85° East 516 594 37,000  Level FlightAware ADS-B
Fri 04:37:11 PM 42.3440 -102.7430 85° East 516 594 37,000  Level FlightAware ADS-B
Fri 04:37:48 PM 42.3510 -102.6420 85° East 516 594 37,000  Level FlightAware ADS-B
Fri 04:38:24 PM 42.3570 -102.5430 85° East 516 594 37,000  Level FlightAware ADS-B
Fri 04:39:01 PM 42.3640 -102.4420 85° East 516 594 37,000  Level FlightAware ADS-B
Fri 04:39:37 PM 42.3700 -102.3440 85° East 516 594 37,000  Level FlightAware ADS-B
Fri 04:40:15 PM 42.3770 -102.2400 85° East 516 594 37,000  Level FlightAware ADS-B
Fri 04:40:52 PM 42.3830 -102.1390 85° East 516 594 37,000  Level FlightAware ADS-B
Fri 04:41:29 PM 42.3900 -102.0370 85° East 516 594 37,000  Level FlightAware ADS-B
Fri 04:42:07 PM 42.3960 -101.9330 85° East 516 594 37,000  Level FlightAware ADS-B
Fri 04:42:43 PM 42.4030 -101.8350 84° East 516 594 37,000  Level FlightAware ADS-B
Fri 04:43:20 PM 42.4090 -101.7330 85° East 516 594 37,000  Level FlightAware ADS-B
Fri 04:43:56 PM 42.4160 -101.6350 84° East 516 594 37,000  Level FlightAware ADS-B
Fri 04:44:33 PM 42.4220 -101.5340 85° East 516 594 37,000  Level FlightAware ADS-B
Fri 04:45:06 PM 42.4083 -101.1661 85° East 511 588 37,000  Level Denver Center
Fri 04:46:08 PM 42.4139 -100.9836 88° East 506 582 37,000  Level Denver Center
Fri 04:47:10 PM 42.4203 -100.7689 88° East 510 587 37,000  Level Denver Center
Fri 04:48:12 PM 42.4275 -100.5850 87° East 510 587 37,000  Level Denver Center
Fri 04:49:15 PM 42.4331 -100.3706 88° East 511 588 37,000  Level Denver Center
Fri 04:50:17 PM 42.4389 -100.1864 87° East 511 588 37,000  Level Denver Center
Fri 04:50:47 PM 42.4406 -100.0969 89° East 512 589 37,000  Level Minneapolis Center
Fri 04:51:19 PM 42.4447 -99.9803 87° East 513 590 37,000  Level Denver Center
Fri 04:52:22 PM 42.4489 -99.7914 88° East 504 580 37,000  Level Denver Center
Fri 04:53:23 PM 42.4531 -99.5958 88° East 513 590 37,000  Level Denver Center
Fri 04:53:54 PM 42.4561 -99.4844 88° East 510 587 37,000  Level Minneapolis Center
Fri 04:54:56 PM 42.4600 -99.2911 88° East 512 589 37,000  Level Minneapolis Center
Fri 04:55:27 PM 42.4617 -99.2131 88° East 509 586 37,000  Level Denver Center
Fri 04:55:58 PM 42.4647 -99.0997 88° East 509 586 37,000  Level Minneapolis Center
Fri 04:57:00 PM 42.4678 -98.9075 89° East 510 587 37,000  Level Minneapolis Center
Fri 04:58:02 PM 42.4708 -98.7153 89° East 510 587 37,000  Level Minneapolis Center
Fri 04:59:07 PM 42.4783 -98.5233 87° East 509 586 37,000  Level Minneapolis Center
Fri 05:04:32 PM 42.5270 -97.4510 87° East 507 583 37,000  Level FlightAware ADS-B
Fri 05:05:07 PM 42.5310 -97.3490 87° East 507 583 37,000  Level FlightAware ADS-B
Fri 05:05:55 PM 42.5370 -97.1990 87° East 507 583 37,000  Level FlightAware ADS-B
Fri 05:06:25 PM 42.5410 -97.0920 87° East 509 586 37,000  Level FlightAware ADS-B
Fri 05:07:10 PM 42.5460 -96.9480 87° East 511 588 37,000  Level FlightAware ADS-B
Fri 05:07:47 PM 42.5500 -96.8410 87° East 510 587 37,000  Level FlightAware ADS-B
Fri 05:08:22 PM 42.5540 -96.7170 87° East 507 583 37,000  Level FlightAware ADS-B
Fri 05:09:02 PM 42.5590 -96.5900 87° East 508 585 37,000 500 Level FlightAware ADS-B
Fri 05:09:34 PM 42.5620 -96.4870 88° East 505 581 37,600 1,091 Climbing FlightAware ADS-B
Fri 05:10:08 PM 42.5650 -96.3820 88° East 502 578 38,200 971 Climbing FlightAware ADS-B
Fri 05:10:42 PM 42.5690 -96.2750 87° East 501 577 38,700 423 Climbing FlightAware ADS-B
Fri 05:11:19 PM 42.5720 -96.1760 88° East 501 577 38,700 265 Level FlightAware ADS-B
Fri 05:11:50 PM 42.5750 -96.0770 88° East 503 579 39,000 265 Climbing FlightAware ADS-B
Fri 05:12:27 PM 42.5780 -95.9480 88° East 503 579 39,000  Level FlightAware ADS-B
Fri 05:13:01 PM 42.5810 -95.8370 88° East 504 580 39,000  Level FlightAware ADS-B
Fri 05:13:35 PM 42.5840 -95.7310 88° East 505 581 39,000  Level FlightAware ADS-B
Fri 05:14:11 PM 42.5870 -95.6160 88° East 506 582 39,000  Level FlightAware ADS-B
Fri 05:14:49 PM 42.5890 -95.4970 89° East 506 582 39,000  Level FlightAware ADS-B
Fri 05:15:20 PM 42.5920 -95.4010 88° East 505 581 39,000  Level FlightAware ADS-B
Fri 05:15:57 PM 42.5940 -95.2820 89° East 505 581 39,000  Level FlightAware ADS-B
Fri 05:16:31 PM 42.5960 -95.1740 89° East 506 582 39,000  Level FlightAware ADS-B
Fri 05:17:09 PM 42.5990 -95.0550 88° East 506 582 39,000  Level FlightAware ADS-B
Fri 05:17:42 PM 42.6010 -94.9510 88° East 507 583 39,000  Level FlightAware ADS-B
Fri 05:18:14 PM 42.6030 -94.8470 88° East 506 582 39,000  Level FlightAware ADS-B
Fri 05:18:54 PM 42.6050 -94.7230 89° East 504 580 39,000  Level FlightAware ADS-B
Fri 05:19:26 PM 42.6060 -94.6190 89° East 503 579 39,000  Level FlightAware ADS-B
Fri 05:20:03 PM 42.6080 -94.5100 89° East 504 580 39,000  Level FlightAware ADS-B
Fri 05:20:36 PM 42.6100 -94.3980 89° East 506 582 39,000  Level FlightAware ADS-B
Fri 05:21:12 PM 42.6110 -94.2860 89° East 508 585 39,000  Level FlightAware ADS-B
Fri 05:21:42 PM 42.6120 -94.1890 89° East 507 583 39,000  Level FlightAware ADS-B
Fri 05:22:22 PM 42.6130 -94.0660 89° East 507 583 39,000  Level FlightAware ADS-B
Fri 05:22:58 PM 42.6140 -93.9510 89° East 507 583 39,000  Level FlightAware ADS-B
Fri 05:23:32 PM 42.6150 -93.8410 89° East 508 585 39,000  Level FlightAware ADS-B
Fri 05:24:07 PM 42.6150 -93.7330 90° East 509 586 39,000  Level FlightAware ADS-B
Fri 05:24:42 PM 42.6160 -93.6210 89° East 506 582 39,000  Level FlightAware ADS-B
Fri 05:25:14 PM 42.6260 -93.5170 83° East 500 575 39,000  Level FlightAware ADS-B
Fri 05:25:52 PM 42.6380 -93.4020 82° East 500 575 39,000  Level FlightAware ADS-B
Fri 05:26:24 PM 42.6480 -93.3010 82° East 500 575 39,000  Level FlightAware ADS-B
Fri 05:27:01 PM 42.6600 -93.1900 82° East 500 575 39,000  Level FlightAware ADS-B
Fri 05:27:36 PM 42.6720 -93.0780 82° East 501 577 39,000  Level FlightAware ADS-B
Fri 05:28:11 PM 42.6840 -92.9720 81° East 501 577 39,000  Level FlightAware ADS-B
Fri 05:28:44 PM 42.6950 -92.8680 82° East 501 577 39,000  Level FlightAware ADS-B
Fri 05:29:21 PM 42.7080 -92.7540 81° East 501 577 39,000  Level FlightAware ADS-B
Fri 05:29:56 PM 42.7200 -92.6440 82° East 500 575 39,000  Level FlightAware ADS-B
Fri 05:30:32 PM 42.7330 -92.5310 81° East 499 574 39,000  Level FlightAware ADS-B
Fri 05:31:08 PM 42.7450 -92.4210 82° East 498 573 39,000  Level FlightAware ADS-B
Fri 05:31:42 PM 42.7570 -92.3150 81° East 499 574 39,000  Level FlightAware ADS-B
Fri 05:32:14 PM 42.7680 -92.2170 81° East 499 574 39,000  Level FlightAware ADS-B
Fri 05:32:44 PM 42.7790 -92.1230 81° East 500 575 39,000  Level FlightAware ADS-B
Fri 05:33:22 PM 42.7940 -92.0060 80° East 500 575 39,000  Level FlightAware ADS-B
Fri 05:33:54 PM 42.8060 -91.9070 81° East 501 577 39,000  Level FlightAware ADS-B
Fri 05:34:30 PM 42.8200 -91.7950 80° East 501 577 39,000  Level FlightAware ADS-B
Fri 05:35:06 PM 42.8340 -91.6840 80° East 501 577 39,000  Level FlightAware ADS-B
Fri 05:35:40 PM 42.8480 -91.5760 80° East 501 577 39,000  Level FlightAware ADS-B
Fri 05:36:20 PM 42.8650 -91.4520 79° East 501 577 39,000  Level FlightAware ADS-B
Fri 05:36:51 PM 42.8770 -91.3620 80° East 501 577 39,000  Level FlightAware ADS-B
Fri 05:37:26 PM 42.8920 -91.2500 80° East 501 577 39,000  Level FlightAware ADS-B
Fri 05:38:04 PM 42.9090 -91.1310 79° East 501 577 39,000  Level FlightAware ADS-B
Fri 05:38:36 PM 42.9220 -91.0330 80° East 502 578 39,000  Level FlightAware ADS-B
Fri 05:39:11 PM 42.9370 -90.9280 79° East 506 582 39,000  Level FlightAware ADS-B
Fri 05:39:44 PM 42.9530 -90.8200 79° East 507 583 39,000  Level FlightAware ADS-B
Fri 05:40:24 PM 42.9710 -90.6930 79° East 507 583 39,000  Level FlightAware ADS-B
Fri 05:40:56 PM 42.9850 -90.5960 79° East 505 581 39,000  Level FlightAware ADS-B
Fri 05:41:32 PM 43.0000 -90.4800 80° East 504 580 39,000  Level FlightAware ADS-B
Fri 05:42:09 PM 43.0160 -90.3670 79° East 503 579 39,000  Level FlightAware ADS-B
Fri 05:42:45 PM 43.0310 -90.2530 80° East 502 578 39,000  Level FlightAware ADS-B
Fri 05:43:18 PM 43.0460 -90.1530 78° East 503 579 39,000  Level FlightAware ADS-B
Fri 05:43:49 PM 43.0600 -90.0560 79° East 504 580 39,000  Level FlightAware ADS-B
Fri 05:44:28 PM 43.0790 -89.9340 78° East 504 580 39,000  Level FlightAware ADS-B
Fri 05:45:05 PM 43.0970 -89.8180 78° East 503 579 39,000  Level FlightAware ADS-B
Fri 05:45:38 PM 43.1130 -89.7180 78° East 502 578 39,000  Level FlightAware ADS-B
Fri 05:46:12 PM 43.1300 -89.6140 77° East 504 580 39,000  Level FlightAware ADS-B
Fri 05:46:46 PM 43.1480 -89.5080 77° East 504 580 39,000  Level FlightAware ADS-B
Fri 05:47:27 PM 43.1710 -89.3810 76° East 504 580 39,000  Level FlightAware ADS-B
Fri 05:48:03 PM 43.1910 -89.2700 76° East 504 580 39,000  Level FlightAware ADS-B
Fri 05:48:38 PM 43.2110 -89.1640 75° East 505 581 39,000  Level FlightAware ADS-B
Fri 05:49:11 PM 43.2290 -89.0680 76° East 506 582 39,000  Level FlightAware ADS-B
Fri 05:49:45 PM 43.2520 -88.9550 74° East 506 582 39,000  Level FlightAware ADS-B
Fri 05:50:27 PM 43.2790 -88.8330 73° East 497 572 39,000  Level FlightAware ADS-B
Fri 05:51:00 PM 43.3020 -88.7300 73° East 488 562 39,000  Level FlightAware ADS-B
Fri 05:51:36 PM 43.3310 -88.6240 69° East 490 564 39,000  Level FlightAware ADS-B
Fri 05:52:10 PM 43.3640 -88.5250 65° Northeast 497 572 39,000  Level FlightAware ADS-B
Fri 05:52:46 PM 43.3960 -88.4270 66° East 504 580 39,000  Level FlightAware ADS-B
Fri 05:53:20 PM 43.4290 -88.3240 66° East 507 583 39,000  Level FlightAware ADS-B
Fri 05:53:56 PM 43.4630 -88.2150 67° East 508 585 39,000  Level FlightAware ADS-B
Fri 05:54:32 PM 43.4950 -88.1130 67° East 505 581 39,000  Level FlightAware ADS-B
Fri 05:55:04 PM 43.5250 -88.0140 67° East 507 583 39,000  Level FlightAware ADS-B
Fri 05:55:40 PM 43.5430 -87.9050 77° East 509 586 39,000  Level FlightAware ADS-B
Fri 05:56:12 PM 43.5490 -87.7990 85° East 515 593 39,000 -545 Level FlightAware ADS-B
Fri 05:56:46 PM 43.5550 -87.6850 86° East 516 594 38,400 -1,054 Descending FlightAware ADS-B
Fri 05:57:26 PM 43.5630 -87.5550 85° East 516 594 37,700 -1,083 Descending FlightAware ADS-B
Fri 05:57:58 PM 43.5680 -87.4510 86° East 517 595 37,100 -1,235 Descending FlightAware ADS-B
Fri 05:58:34 PM 43.5720 -87.3340 87° East 522 601 36,300 -1,378 Descending FlightAware ADS-B
Fri 05:59:12 PM 43.5760 -87.2070 87° East 528 608 35,400 -1,083 Descending FlightAware ADS-B
Fri 05:59:46 PM 43.5720 -87.0920 93° East 529 609 35,000 -353 Descending FlightAware ADS-B
Fri 06:00:20 PM 43.5640 -86.9790 96° East 528 608 35,000  Level FlightAware ADS-B
Fri 06:00:55 PM 43.5560 -86.8600 95° East 529 609 35,000  Level FlightAware ADS-B
Fri 06:01:31 PM 43.5490 -86.7370 94° East 529 609 35,000  Level FlightAware ADS-B
Fri 06:02:07 PM 43.5410 -86.6160 95° East 532 612 35,000  Level FlightAware ADS-B
Fri 06:02:40 PM 43.5350 -86.5060 94° East 531 611 35,000  Level FlightAware ADS-B
Fri 06:03:16 PM 43.5280 -86.3870 95° East 527 606 35,000  Level FlightAware ADS-B
Fri 06:03:51 PM 43.5210 -86.2690 95° East 528 608 35,000  Level FlightAware ADS-B
Fri 06:04:26 PM 43.5140 -86.1520 95° East 530 610 35,000  Level FlightAware ADS-B
Fri 06:05:02 PM 43.5080 -86.0330 94° East 530 610 35,000  Level FlightAware ADS-B
Fri 06:05:35 PM 43.5020 -85.9180 94° East 531 611 35,000  Level FlightAware ADS-B
Fri 06:06:11 PM 43.4950 -85.7950 94° East 535 616 35,000  Level FlightAware ADS-B
Fri 06:06:47 PM 43.4830 -85.6750 98° East 537 618 35,000  Level FlightAware ADS-B
Fri 06:07:23 PM 43.4700 -85.5550 98° East 535 616 35,000  Level FlightAware ADS-B
Fri 06:08:03 PM 43.4570 -85.4190 97° East 532 612 35,000  Level FlightAware ADS-B
Fri 06:08:37 PM 43.4450 -85.3050 98° East 533 613 35,000  Level FlightAware ADS-B
Fri 06:09:13 PM 43.4330 -85.1860 98° East 537 618 35,000  Level FlightAware ADS-B
Fri 06:09:49 PM 43.4210 -85.0640 98° East 536 617 35,000  Level FlightAware ADS-B
Fri 06:10:24 PM 43.4090 -84.9470 98° East 529 609 35,000  Level FlightAware ADS-B
Fri 06:10:57 PM 43.3970 -84.8390 99° East 526 605 35,000  Level FlightAware ADS-B
Fri 06:11:35 PM 43.3830 -84.7130 99° East 524 603 35,000  Level FlightAware ADS-B
Fri 06:12:07 PM 43.3710 -84.6070 99° East 522 601 35,000  Level FlightAware ADS-B
Fri 06:12:45 PM 43.3560 -84.4820 99° East 519 597 35,000 82 Level FlightAware ADS-B
Fri 06:13:20 PM 43.3440 -84.3730 99° East 517 595 35,100 882 Climbing FlightAware ADS-B
Fri 06:13:53 PM 43.3300 -84.2640 100° East 509 586 36,000 1,970 Climbing FlightAware ADS-B
Fri 06:14:27 PM 43.3150 -84.1570 101° East 495 570 37,300 1,333 Climbing FlightAware ADS-B
Fri 06:15:05 PM 43.2950 -84.0400 103° East 507 583 37,600 600 Climbing FlightAware ADS-B
Fri 06:15:37 PM 43.2740 -83.9410 106° East 513 590 38,000 618 Climbing FlightAware ADS-B
Fri 06:16:13 PM 43.2510 -83.8310 106° East 520 598 38,300 500 Climbing FlightAware ADS-B
Fri 06:16:49 PM 43.2280 -83.7160 105° East 529 609 38,600 441 Climbing FlightAware ADS-B
Fri 06:17:21 PM 43.2070 -83.6130 106° East 530 610 38,800 348 Climbing FlightAware ADS-B
Fri 06:17:58 PM 43.1840 -83.4970 105° East 527 606 39,000 154 Climbing FlightAware ADS-B
Fri 06:18:39 PM 43.1570 -83.3630 105° East 516 594 39,000  Level FlightAware ADS-B
Fri 06:19:13 PM 43.1350 -83.2560 106° East 507 583 39,000  Level FlightAware ADS-B
Fri 06:19:45 PM 43.1150 -83.1560 105° East 504 580 39,000  Level FlightAware ADS-B
Fri 06:20:25 PM 43.0890 -83.0320 106° East 511 588 39,000  Level FlightAware ADS-B
Fri 06:20:59 PM 43.0680 -82.9280 105° East 515 593 39,000  Level FlightAware ADS-B
Fri 06:21:33 PM 43.0480 -82.8320 106° East 520 598 39,000  Level FlightAware ADS-B
Fri 06:22:10 PM 43.0220 -82.7100 106° East 521 600 39,000  Level FlightAware ADS-B
Fri 06:22:45 PM 42.9980 -82.5950 106° East 520 598 39,000  Level FlightAware ADS-B
Fri 06:23:21 PM 42.9740 -82.4840 106° East 517 595 39,000  Level FlightAware ADS-B
Fri 06:23:57 PM 42.9490 -82.3690 107° East 516 594 39,000  Level FlightAware ADS-B
Fri 06:24:27 PM 42.9290 -82.2750 106° East 520 598 39,000  Level FlightAware ADS-B
Fri 06:25:06 PM 42.9030 -82.1580 107° East 522 601 39,000  Level FlightAware ADS-B
Fri 06:25:46 PM 42.8760 -82.0350 107° East 521 600 39,000  Level FlightAware ADS-B
Fri 06:26:20 PM 42.8520 -81.9250 107° East 519 597 39,000  Level FlightAware ADS-B
Fri 06:26:56 PM 42.8270 -81.8160 107° East 518 596 39,000  Level FlightAware ADS-B
Fri 06:27:31 PM 42.8030 -81.7070 107° East 517 595 39,000  Level FlightAware ADS-B
Fri 06:28:06 PM 42.7780 -81.5960 107° East 518 596 39,000  Level FlightAware ADS-B
Fri 06:28:41 PM 42.7540 -81.4900 107° East 519 597 39,000  Level FlightAware ADS-B
Fri 06:29:17 PM 42.7270 -81.3680 107° East 516 594 39,000  Level FlightAware ADS-B
Fri 06:29:53 PM 42.7010 -81.2570 108° East 516 594 39,000  Level FlightAware ADS-B
Fri 06:30:26 PM 42.6800 -81.1650 107° East 516 594 39,000  Level FlightAware ADS-B
Fri 06:31:01 PM 42.6550 -81.0560 107° East 518 596 39,000  Level FlightAware ADS-B
Fri 06:31:39 PM 42.6260 -80.9300 107° East 519 597 39,000  Level FlightAware ADS-B
Fri 06:32:15 PM 42.6000 -80.8200 108° East 518 596 39,000  Level FlightAware ADS-B
Fri 06:32:47 PM 42.5760 -80.7180 108° East 518 596 39,000  Level FlightAware ADS-B
Fri 06:33:21 PM 42.5530 -80.6190 107° East 520 598 39,000  Level FlightAware ADS-B
Fri 06:33:57 PM 42.5300 -80.5210 108° East 519 597 39,000  Level FlightAware ADS-B
Fri 06:34:31 PM 42.5020 -80.4050 108° East 516 594 39,000  Level FlightAware ADS-B
Fri 06:35:11 PM 42.4730 -80.2810 108° East 514 592 39,000  Level FlightAware ADS-B
Fri 06:35:41 PM 42.4510 -80.1890 108° East 515 593 39,000  Level FlightAware ADS-B
Fri 06:36:21 PM 42.4220 -80.0670 108° East 517 595 39,000  Level FlightAware ADS-B
Fri 06:36:56 PM 42.3950 -79.9590 109° East 518 596 39,000  Level FlightAware ADS-B
Fri 06:37:26 PM 42.3740 -79.8690 108° East 518 596 39,000  Level FlightAware ADS-B
Fri 06:38:01 PM 42.3470 -79.7590 108° East 518 596 39,000  Level FlightAware ADS-B
Fri 06:38:41 PM 42.3170 -79.6380 108° East 517 595 39,000  Level FlightAware ADS-B
Fri 06:39:11 PM 42.2950 -79.5480 108° East 516 594 39,000  Level FlightAware ADS-B
Fri 06:39:48 PM 42.2700 -79.4480 109° East 514 592 39,000  Level FlightAware ADS-B
Fri 06:40:21 PM 42.2430 -79.3370 108° East 514 592 39,000  Level FlightAware ADS-B
Fri 06:41:01 PM 42.2110 -79.2110 109° East 513 590 39,000  Level FlightAware ADS-B
Fri 06:41:31 PM 42.1890 -79.1200 108° East 513 590 39,000  Level FlightAware ADS-B
Fri 06:42:09 PM 42.1640 -79.0160 108° East 513 590 39,000  Level FlightAware ADS-B
Fri 06:42:46 PM 42.1330 -78.8960 109° East 514 592 39,000  Level FlightAware ADS-B
Fri 06:43:21 PM 42.1050 -78.7900 110° East 515 593 39,000  Level FlightAware ADS-B
Fri 06:43:56 PM 42.0780 -78.6820 109° East 517 595 39,000  Level FlightAware ADS-B
Fri 06:44:26 PM 42.0550 -78.5910 109° East 518 596 39,000  Level FlightAware ADS-B
Fri 06:45:01 PM 42.0280 -78.4860 109° East 517 595 39,000  Level FlightAware ADS-B
Fri 06:45:41 PM 41.9970 -78.3640 109° East 515 593 39,000  Level FlightAware ADS-B
Fri 06:46:14 PM 41.9710 -78.2600 109° East 514 592 39,000  Level FlightAware ADS-B
Fri 06:46:50 PM 41.9430 -78.1510 109° East 512 589 39,000  Level FlightAware ADS-B
Fri 06:47:24 PM 41.9160 -78.0470 109° East 511 588 39,000  Level FlightAware ADS-B
Fri 06:47:57 PM 41.8910 -77.9520 109° East 510 587 39,000  Level FlightAware ADS-B
Fri 06:48:34 PM 41.8620 -77.8390 109° East 509 586 39,000  Level FlightAware ADS-B
Fri 06:49:10 PM 41.8330 -77.7320 110° East 505 581 39,000  Level FlightAware ADS-B
Fri 06:49:46 PM 41.8050 -77.6260 109° East 502 578 39,000  Level FlightAware ADS-B
Fri 06:50:18 PM 41.7800 -77.5320 110° East 499 574 39,000  Level FlightAware ADS-B
Fri 06:50:54 PM 41.7530 -77.4300 110° East 500 575 39,000  Level FlightAware ADS-B
Fri 06:51:30 PM 41.7260 -77.3270 109° East 501 577 39,000  Level FlightAware ADS-B
Fri 06:52:06 PM 41.6970 -77.2210 110° East 501 577 39,000  Level FlightAware ADS-B
Fri 06:52:38 PM 41.6720 -77.1270 110° East 500 575 39,000  Level FlightAware ADS-B
Fri 06:53:22 PM 41.6370 -76.9990 110° East 498 573 39,000  Level FlightAware ADS-B
Fri 06:53:56 PM 41.6110 -76.9010 110° East 499 574 39,000  Level FlightAware ADS-B
Fri 06:54:47 PM 41.5750 -76.7670 110° East 501 577 39,000  Level FlightAware ADS-B
Fri 06:55:22 PM 41.5530 -76.6800 109° East 501 577 39,000  Level FlightAware ADS-B
Fri 06:56:02 PM 41.5270 -76.5800 109° East 501 577 39,000 -320 Level FlightAware ADS-B
Fri 06:56:37 PM 41.4880 -76.4540 112° Southeast 494 568 38,600 -1,324 Descending FlightAware ADS-B
Fri 06:57:10 PM 41.4580 -76.3450 110° East 503 579 37,500 -1,583 Descending FlightAware ADS-B
Fri 06:57:49 PM 41.4250 -76.2290 111° Southeast 498 573 36,700 -1,913 Descending FlightAware ADS-B
Fri 06:58:19 PM 41.4010 -76.1420 110° East 500 575 35,300 -2,824 Descending FlightAware ADS-B
Fri 06:58:57 PM 41.3700 -76.0320 111° Southeast 505 581 33,500 -2,917 Descending FlightAware ADS-B
Fri 06:59:31 PM 41.3420 -75.9330 111° Southeast 504 580 31,800 -2,912 Descending FlightAware ADS-B
Fri 07:00:05 PM 41.3140 -75.8340 111° Southeast 504 580 30,200 -2,657 Descending FlightAware ADS-B
Fri 07:00:41 PM 41.2850 -75.7320 111° Southeast 498 573 28,700 -2,351 Descending FlightAware ADS-B
Fri 07:01:19 PM 41.2530 -75.6290 112° Southeast 489 563 27,300 -2,282 Descending FlightAware ADS-B
Fri 07:01:52 PM 41.2220 -75.5370 114° Southeast 482 555 26,000 -2,344 Descending FlightAware ADS-B
Fri 07:02:23 PM 41.1940 -75.4520 114° Southeast 472 543 24,800 -2,282 Descending FlightAware ADS-B
Fri 07:03:03 PM 41.1590 -75.3490 114° Southeast 462 532 23,300 -1,421 Descending FlightAware ADS-B
Fri 07:03:39 PM 41.1270 -75.2540 114° Southeast 457 526 23,000 -348 Descending FlightAware ADS-B
Fri 07:04:12 PM 41.0990 -75.1720 114° Southeast 453 521 22,900 -769 Descending FlightAware ADS-B
Fri 07:04:57 PM 41.0610 -75.0610 114° Southeast 452 520 22,000 -846 Descending FlightAware ADS-B
Fri 07:05:30 PM 41.0330 -74.9780 114° Southeast 455 524 21,800 -455 Descending FlightAware ADS-B
Fri 07:06:03 PM 41.0070 -74.8980 113° Southeast 453 521 21,500 -537 Descending FlightAware ADS-B
Fri 07:06:37 PM 40.9880 -74.8000 104° East 451 519 21,200 -568 Descending FlightAware ADS-B
Fri 07:07:17 PM 40.9760 -74.6900 98° East 447 514 20,800 -575 Descending FlightAware ADS-B
Fri 07:07:50 PM 40.9670 -74.6000 98° East 448 516 20,500 -554 Descending FlightAware ADS-B
Fri 07:08:22 PM 40.9570 -74.5130 99° East 446 513 20,200 -537 Descending FlightAware ADS-B
Fri 07:08:57 PM 40.9470 -74.4230 98° East 442 509 19,900 -505 Descending FlightAware ADS-B
Fri 07:09:28 PM 40.9379 -74.3384 98° East 19,700 -500 Descending FlightAware ADS-B
Fri 07:10:09 PM 40.9260 -74.2340 99° East 417 480 19,300 -600 Descending FlightAware ADS-B
Fri 07:10:18 PM 40.9232 -74.2081 98° East 407 468 19,200 -391 Descending FlightAware ADS-B
Fri 07:10:55 PM 40.9067 -74.1244 105° East 376 433 19,000 -245 Descending FlightAware ADS-B
Fri 07:11:07 PM 40.8951 -74.1019 124° Southeast 376 433 19,000  Level FlightAware ADS-B
Fri 07:11:17 PM 40.8830 -74.0854 134° Southeast 378 435 19,000  Level FlightAware ADS-B
Fri 07:11:28 PM 40.8665 -74.0696 144° Southeast 377 434 19,000  Level FlightAware ADS-B
Fri 07:11:32 PM 40.8609 -74.0654 150° Southeast 377 434 19,000  Level FlightAware ADS-B
Fri 07:12:11 PM 40.8002 -74.0259 154° Southeast 377 434 19,000 -423 Level FlightAware ADS-B
Fri 07:12:43 PM 40.7530 -73.9960 154° Southeast 367 422 18,500 -957 Descending FlightAware ADS-B
Fri 07:13:20 PM 40.6970 -73.9610 155° Southeast 349 402 17,900 -1,562 Descending FlightAware ADS-B
Fri 07:13:56 PM 40.6440 -73.9270 154° Southeast 339 390 16,600 -2,294 Descending FlightAware ADS-B
Fri 07:14:28 PM 40.5990 -73.8980 154° Southeast 333 383 15,300 -2,559 Descending FlightAware ADS-B
Fri 07:15:04 PM 40.5490 -73.8670 155° Southeast 335 386 13,700 -2,057 Descending FlightAware ADS-B
Fri 07:15:38 PM 40.5000 -73.8450 161° South 324 373 12,900 -1,629 Descending FlightAware ADS-B
Fri 07:16:14 PM 40.4470 -73.8380 174° South 316 364 11,800 -1,652 Descending FlightAware ADS-B
Fri 07:16:47 PM 40.3990 -73.8330 175° South 306 352 11,000 -1,474 Descending FlightAware ADS-B
Fri 07:17:11 PM 40.3690 -73.8160 157° South 301 346 10,400 -1,667 Descending FlightAware ADS-B
Fri 07:17:23 PM 40.3580 -73.7980 129° Southeast 300 345 10,000 -1,818 Descending FlightAware ADS-B
Fri 07:17:44 PM 40.3460 -73.7680 118° Southeast 300 345 9,400 -1,857 Descending FlightAware ADS-B
Fri 07:18:05 PM 40.3320 -73.7320 117° Southeast 299 344 8,700 -1,886 Descending FlightAware ADS-B
Fri 07:18:19 PM 40.3240 -73.7080 114° Southeast 298 343 8,300 -1,667 Descending FlightAware ADS-B
Fri 07:18:23 PM 40.3230 -73.7010 101° East 299 344 8,200 -1,636 Descending FlightAware ADS-B
Fri 07:18:30 PM 40.3220 -73.6890 96° East 300 345 8,000 -1,333 Descending FlightAware ADS-B
Fri 07:18:50 PM 40.3300 -73.6560 72° East 295 339 7,600 -1,161 Descending FlightAware ADS-B
Fri 07:19:01 PM 40.3390 -73.6420 50° Northeast 291 335 7,400 -1,263 Descending FlightAware ADS-B
Fri 07:19:09 PM 40.3490 -73.6340 31° Northeast 289 333 7,200 -1,143 Descending FlightAware ADS-B
Fri 07:19:22 PM 40.3630 -73.6240 29° Northeast 286 329 7,000 -343 Descending FlightAware ADS-B
Fri 07:19:44 PM 40.3880 -73.6060 29° Northeast 290 334 7,000  Level FlightAware ADS-B
Fri 07:20:02 PM 40.4090 -73.5920 27° Northeast 290 334 7,000  Level FlightAware ADS-B
Fri 07:20:26 PM 40.4370 -73.5730 27° Northeast 289 333 7,000  Level FlightAware ADS-B
Fri 07:20:46 PM 40.4620 -73.5550 29° Northeast 269 310 7,000  Level FlightAware ADS-B
Fri 07:21:10 PM 40.4870 -73.5380 27° Northeast 248 285 7,000 -146 Level FlightAware ADS-B
Fri 07:21:27 PM 40.5040 -73.5260 28° Northeast 242 278 6,900 -811 Descending FlightAware ADS-B
Fri 07:21:47 PM 40.5250 -73.5110 28° Northeast 240 276 6,500 -1,091 Descending FlightAware ADS-B
Fri 07:22:11 PM 40.5490 -73.4940 28° Northeast 238 274 6,100 -857 Descending FlightAware ADS-B
Fri 07:22:29 PM 40.5660 -73.4820 28° Northeast 236 272 5,900 -818 Descending FlightAware ADS-B
Fri 07:22:55 PM 40.5900 -73.4650 28° Northeast 233 268 5,500 -955 Descending FlightAware ADS-B
Fri 07:23:13 PM 40.6070 -73.4520 30° Northeast 232 267 5,200 -750 Descending FlightAware ADS-B
Fri 07:23:35 PM 40.6280 -73.4360 30° Northeast 231 266 5,000 -300 Descending FlightAware ADS-B
Fri 07:23:53 PM 40.6440 -73.4240 30° Northeast 232 267 5,000  Level FlightAware ADS-B
Fri 07:24:08 PM 40.6580 -73.4140 28° Northeast 231 266 5,000  Level FlightAware ADS-B
Fri 07:24:32 PM 40.6800 -73.3960 32° Northeast 232 267 5,000  Level FlightAware ADS-B
Fri 07:24:48 PM 40.6950 -73.3850 29° Northeast 233 268 5,000  Level FlightAware ADS-B
Fri 07:25:14 PM 40.7200 -73.3660 30° Northeast 231 266 5,000  Level FlightAware ADS-B
Fri 07:25:28 PM 40.7320 -73.3580 27° Northeast 232 267 5,000 -353 Level FlightAware ADS-B
Fri 07:25:48 PM 40.7530 -73.3490 18° North 226 260 4,800 -732 Descending FlightAware ADS-B
Fri 07:26:09 PM 40.7720 -73.3600 336° Northwest 214 246 4,500 -878 Descending FlightAware ADS-B
Fri 07:26:29 PM 40.7860 -73.3770 317° Northwest 213 245 4,200 -732 Descending FlightAware ADS-B
Fri 07:26:50 PM 40.8010 -73.3980 313° West 214 246 4,000 -267 Descending FlightAware ADS-B
Fri 07:27:14 PM 40.8080 -73.4190 294° West 216 249 4,000  Level FlightAware ADS-B
Fri 07:27:38 PM 40.8150 -73.4510 286° West 217 250 4,000  Level FlightAware ADS-B
Fri 07:27:54 PM 40.8200 -73.4770 284° West 217 250 4,000  Level FlightAware ADS-B
Fri 07:27:59 PM 40.8200 -73.4860 270° West 217 250 4,000 -414 Level FlightAware ADS-B
Fri 07:28:23 PM 40.8160 -73.5150 260° West 214 246 3,800 -818 Descending FlightAware ADS-B
Fri 07:28:43 PM 40.8100 -73.5420 254° West 214 246 3,400 -1,171 Descending FlightAware ADS-B
Fri 07:29:04 PM 40.8050 -73.5670 255° West 212 244 3,000 -615 Descending FlightAware ADS-B
Fri 07:29:22 PM 40.8010 -73.5890 257° West 213 245 3,000  Level FlightAware ADS-B
Fri 07:29:44 PM 40.7960 -73.6170 257° West 213 245 3,000  Level FlightAware ADS-B
Fri 07:30:08 PM 40.7900 -73.6470 255° West 214 246 3,000  Level FlightAware ADS-B
Fri 07:30:16 PM 40.7860 -73.6570 242° Southwest 216 249 3,000  Level FlightAware ADS-B
Fri 07:30:20 PM 40.7840 -73.6610 237° Southwest 217 250 3,000  Level FlightAware ADS-B
Fri 07:30:28 PM 40.7780 -73.6680 221° Southwest 217 250 3,000 -300 Level FlightAware ADS-B
Fri 07:30:40 PM 40.7680 -73.6790 220° Southwest 220 253 2,900 -1,000 Descending FlightAware ADS-B
Fri 07:31:04 PM 40.7470 -73.6960 212° Southwest 219 252 2,400 -1,256 Descending FlightAware ADS-B
Fri 07:31:23 PM 40.7300 -73.7080 208° Southwest 202 232 2,000 -1,200 Descending FlightAware ADS-B
Fri 07:31:39 PM 40.7170 -73.7160 205° Southwest 191 220 1,700 -973 Descending FlightAware ADS-B
Fri 07:32:00 PM 40.7030 -73.7270 211° Southwest 170 196 1,400 -900 Descending FlightAware ADS-B
Fri 07:32:19 PM 40.6900 -73.7360 208° Southwest 146 168 1,100 -732 Descending FlightAware ADS-B
Fri 07:32:41 PM 40.6780 -73.7440 207° Southwest 128 147 900 -558 Descending FlightAware ADS-B
Fri 07:33:02 PM 40.6670 -73.7510 206° Southwest 127 146 700 -769 Descending FlightAware ADS-B
Fri 07:33:20 PM 40.6580 -73.7580 211° Southwest 127 146 400 -750 Descending FlightAware ADS-B
Fri 07:33:42 PM 40.6480 -73.7660 211° Southwest 126 145 200 -500 Descending FlightAware ADS-B
Fri 07:33:56 PM 40.6400 -73.7720 210° Southwest 124 143 100 -429 Descending FlightAware ADS-B
Fri 07:34:12 PM 40.6330 -73.7770 208° Southwest 84 97 -375 Descending FlightAware ADS-B

Login

Don't have an account? Register now (free) for customized features, flight alerts, and more!